createdAt,value
2022-10-03T00:02:48.621Z,15.20
2022-10-03T00:05:26.205Z,14.85
2022-10-03T00:08:14.233Z,15.09
2022-10-03T00:11:07.275Z,15.23
2022-10-03T00:13:39.091Z,15.24
2022-10-03T00:16:11.021Z,15.37
2022-10-03T00:19:01.091Z,15.37
2022-10-03T00:21:44.921Z,15.78
2022-10-03T00:24:25.274Z,15.63
2022-10-03T00:27:02.795Z,15.63
2022-10-03T00:29:43.483Z,15.73
2022-10-03T00:32:27.650Z,15.30
2022-10-03T00:35:12.477Z,15.16
2022-10-03T00:37:44.325Z,15.55
2022-10-03T00:40:41.788Z,15.47
2022-10-03T00:43:43.673Z,15.01
2022-10-03T00:46:27.433Z,15.49
2022-10-03T00:49:11.291Z,15.49
2022-10-03T00:52:02.926Z,15.21
2022-10-03T00:54:34.752Z,15.22
2022-10-03T00:57:10.315Z,15.24
2022-10-03T00:59:50.695Z,14.79
2022-10-03T01:02:50.370Z,15.06
2022-10-03T01:05:34.680Z,15.32
2022-10-03T01:08:12.267Z,15.28
2022-10-03T01:10:58.925Z,14.76
2022-10-03T01:13:39.424Z,15.10
2022-10-03T01:16:33.887Z,14.83
2022-10-03T01:19:08.752Z,14.78
2022-10-03T01:21:46.668Z,14.85
2022-10-03T01:24:24.918Z,14.92
2022-10-03T01:26:59.520Z,14.74
2022-10-03T01:30:04.683Z,14.64
2022-10-03T01:32:56.034Z,14.61
2022-10-03T01:35:27.951Z,14.61
2022-10-03T01:38:17.975Z,14.56
2022-10-03T01:41:00.303Z,14.56
2022-10-03T01:43:46.957Z,14.72
2022-10-03T01:46:37.681Z,14.85
2022-10-03T01:49:25.469Z,14.85
2022-10-03T01:52:03.085Z,14.64
2022-10-03T01:54:43.711Z,14.61
2022-10-03T01:57:15.555Z,14.50
2022-10-03T02:00:04.427Z,14.50
2022-10-03T02:02:39.388Z,14.09
2022-10-03T02:05:28.393Z,14.50
2022-10-03T02:08:02.911Z,14.50
2022-10-03T02:10:37.635Z,14.63
2022-10-03T02:13:44.414Z,14.63
2022-10-03T02:16:45.958Z,14.61
2022-10-03T02:19:33.374Z,14.54
2022-10-03T02:22:03.202Z,14.76
2022-10-03T02:24:54.463Z,14.53
2022-10-03T02:27:34.850Z,14.44
2022-10-03T02:30:27.559Z,14.08
2022-10-03T02:32:59.364Z,14.27
2022-10-03T02:35:59.569Z,14.49
2022-10-03T02:38:47.807Z,14.60
2022-10-03T02:41:25.674Z,14.71
2022-10-03T02:44:18.574Z,14.48
2022-10-03T02:47:09.920Z,14.29
2022-10-03T02:50:02.818Z,14.41
2022-10-03T02:52:57.656Z,14.65
2022-10-03T02:55:46.476Z,14.43
2022-10-03T02:58:21.161Z,14.48
2022-10-03T03:01:01.770Z,14.48
2022-10-03T03:03:52.220Z,14.51
2022-10-03T03:06:56.738Z,14.51
2022-10-03T03:09:36.891Z,14.40
2022-10-03T03:12:27.537Z,14.50
2022-10-03T03:15:14.298Z,14.30
2022-10-03T03:18:07.267Z,14.47
2022-10-03T03:21:04.172Z,14.47
2022-10-03T03:24:09.436Z,14.21
2022-10-03T03:27:01.353Z,14.29
2022-10-03T03:29:51.107Z,14.47
2022-10-03T03:32:22.981Z,14.31
2022-10-03T03:35:00.699Z,14.42
2022-10-03T03:37:44.688Z,14.32
2022-10-03T03:40:32.873Z,14.44
2022-10-03T03:43:26.227Z,14.57
2022-10-03T03:46:13.500Z,14.37
2022-10-03T03:49:03.804Z,14.36
2022-10-03T03:51:35.649Z,14.48
2022-10-03T03:54:27.151Z,14.68
2022-10-03T03:57:34.201Z,14.46
2022-10-03T04:00:18.618Z,15.05
2022-10-03T04:03:09.816Z,15.44
2022-10-03T04:05:56.718Z,15.74
2022-10-03T04:08:51.272Z,15.74
2022-10-03T04:11:31.724Z,16.25
2022-10-03T04:14:21.583Z,17.14
2022-10-03T04:17:20.550Z,17.14
2022-10-03T04:20:13.015Z,18.61
2022-10-03T04:23:06.401Z,18.61
2022-10-03T04:25:54.950Z,18.30
2022-10-03T04:28:45.854Z,17.15
2022-10-03T04:31:32.584Z,17.23
2022-10-03T04:34:09.944Z,17.23
2022-10-03T04:36:51.038Z,16.64
2022-10-03T04:39:38.102Z,16.16
2022-10-03T04:42:32.468Z,16.16
2022-10-03T04:45:10.247Z,15.87
2022-10-03T04:48:00.045Z,15.87
2022-10-03T04:50:34.847Z,16.13
2022-10-03T04:53:19.650Z,16.03
2022-10-03T04:56:00.536Z,16.11
2022-10-03T04:58:59.521Z,15.68
2022-10-03T05:01:31.397Z,15.68
2022-10-03T05:04:37.084Z,15.89
2022-10-03T05:07:23.823Z,16.51
2022-10-03T05:09:55.893Z,16.71
2022-10-03T05:12:44.723Z,17.07
2022-10-03T05:15:38.595Z,17.21
2022-10-03T05:18:26.808Z,17.21
2022-10-03T05:21:03.277Z,17.09
2022-10-03T05:23:41.004Z,16.61
2022-10-03T05:26:46.821Z,16.96
2022-10-03T05:29:15.413Z,16.96
2022-10-03T05:31:53.941Z,18.74
2022-10-03T05:34:46.341Z,18.44
2022-10-03T05:37:25.904Z,18.44
2022-10-03T05:40:06.852Z,17.83
2022-10-03T05:42:49.951Z,18.30
2022-10-03T05:45:50.233Z,18.34
2022-10-03T05:48:34.357Z,17.91
2022-10-03T05:51:33.483Z,18.53
2022-10-03T05:54:08.097Z,18.18
2022-10-03T05:56:55.142Z,17.86
2022-10-03T05:59:29.126Z,17.41
2022-10-03T06:02:09.705Z,17.41
2022-10-03T06:04:47.211Z,18.25
2022-10-03T06:07:37.047Z,18.54
2022-10-03T06:10:21.096Z,18.54
2022-10-03T06:13:18.629Z,19.23
2022-10-03T06:15:52.220Z,20.82
2022-10-03T06:18:42.642Z,20.82
2022-10-03T06:21:23.587Z,21.64
2022-10-03T06:24:01.463Z,23.05
2022-10-03T06:26:49.847Z,23.05
2022-10-03T06:29:33.526Z,22.54
2022-10-03T06:32:05.428Z,22.54
2022-10-03T06:34:56.460Z,23.46
2022-10-03T06:37:46.498Z,23.61
2022-10-03T06:40:23.942Z,23.61
2022-10-03T06:43:13.965Z,24.41
2022-10-03T06:45:48.982Z,23.78
2022-10-03T06:48:49.377Z,23.59
2022-10-03T06:51:41.062Z,23.59
2022-10-03T06:54:44.853Z,23.26
2022-10-03T06:57:31.748Z,24.44
2022-10-03T07:00:06.968Z,24.92
2022-10-03T07:02:41.415Z,24.46
2022-10-03T07:05:40.983Z,24.89
2022-10-03T07:08:30.743Z,24.89
2022-10-03T07:11:02.567Z,24.60
2022-10-03T07:13:52.734Z,24.29
2022-10-03T07:16:56.486Z,24.93
2022-10-03T07:19:43.695Z,26.41
2022-10-03T07:22:35.287Z,27.21
2022-10-03T07:25:28.176Z,27.21
2022-10-03T07:28:03.145Z,26.24
2022-10-03T07:30:53.703Z,25.57
2022-10-03T07:33:41.975Z,25.60
2022-10-03T07:36:40.566Z,25.60
2022-10-03T07:39:28.781Z,26.63
2022-10-03T07:42:18.998Z,26.63
2022-10-03T07:45:11.332Z,25.55
2022-10-03T07:47:51.842Z,24.57
2022-10-03T07:50:40.128Z,25.87
2022-10-03T07:53:23.599Z,25.80
2022-10-03T07:56:15.302Z,26.06
2022-10-03T07:59:18.893Z,26.06
2022-10-03T08:02:23.935Z,26.34
2022-10-03T08:05:21.824Z,24.31
2022-10-03T08:08:05.945Z,25.62
2022-10-03T08:11:06.919Z,26.61
2022-10-03T08:13:55.270Z,26.61
2022-10-03T08:16:39.317Z,25.16
2022-10-03T08:19:26.078Z,26.31
2022-10-03T08:22:03.645Z,26.10
2022-10-03T08:24:54.128Z,26.10
2022-10-03T08:27:55.082Z,26.37
2022-10-03T08:30:48.035Z,24.08
2022-10-03T08:33:25.974Z,23.62
2022-10-03T08:36:31.021Z,23.62
2022-10-03T08:39:28.723Z,24.25
2022-10-03T08:42:15.600Z,24.67
2022-10-03T08:44:56.230Z,25.71
2022-10-03T08:47:45.579Z,25.71
2022-10-03T08:50:36.751Z,24.57
2022-10-03T08:53:25.286Z,24.99
2022-10-03T08:56:04.619Z,25.33
2022-10-03T08:59:02.481Z,22.72
2022-10-03T09:01:49.652Z,22.07
2022-10-03T09:04:55.205Z,21.64
2022-10-03T09:07:48.181Z,21.64
2022-10-03T09:10:51.956Z,22.55
2022-10-03T09:13:58.087Z,24.02
2022-10-03T09:16:46.745Z,24.88
2022-10-03T09:19:52.602Z,24.29
2022-10-03T09:22:34.959Z,22.55
2022-10-03T09:25:20.151Z,22.55
2022-10-03T09:28:01.514Z,21.89
2022-10-03T09:30:50.507Z,23.73
2022-10-03T09:33:43.335Z,23.45
2022-10-03T09:36:44.395Z,23.45
2022-10-03T09:39:34.075Z,25.62
2022-10-03T09:42:24.253Z,25.54
2022-10-03T09:45:17.404Z,25.54
2022-10-03T09:47:55.998Z,24.06
2022-10-03T09:50:47.681Z,24.06
2022-10-03T09:53:29.909Z,23.57
2022-10-03T09:56:20.210Z,24.25
2022-10-03T09:59:18.955Z,24.53
2022-10-03T10:01:57.970Z,25.28
2022-10-03T10:04:55.803Z,25.28
2022-10-03T10:07:28.601Z,25.08
2022-10-03T10:10:23.465Z,23.65
2022-10-03T10:13:13.315Z,24.05
2022-10-03T10:16:02.639Z,23.25
2022-10-03T10:18:52.680Z,22.77
2022-10-03T10:21:57.956Z,23.07
2022-10-03T10:24:52.409Z,23.07
2022-10-03T10:27:41.579Z,21.78
2022-10-03T10:30:19.341Z,22.24
2022-10-03T10:33:27.684Z,22.14
2022-10-03T10:36:19.229Z,21.55
2022-10-03T10:39:08.453Z,21.27
2022-10-03T10:41:49.229Z,21.27
2022-10-03T10:44:33.268Z,21.63
2022-10-03T10:47:30.802Z,21.87
2022-10-03T10:50:24.954Z,21.71
2022-10-03T10:53:29.263Z,21.77
2022-10-03T10:56:18.305Z,21.77
2022-10-03T10:58:58.694Z,21.61
2022-10-03T11:01:56.488Z,21.94
2022-10-03T11:04:43.310Z,21.57
2022-10-03T11:07:15.843Z,21.90
2022-10-03T11:10:04.138Z,21.73
2022-10-03T11:12:49.338Z,21.73
2022-10-03T11:15:43.684Z,21.06
2022-10-03T11:18:36.255Z,21.98
2022-10-03T11:21:26.112Z,22.24
2022-10-03T11:24:06.770Z,22.24
2022-10-03T11:26:44.643Z,21.24
2022-10-03T11:29:33.024Z,21.24
2022-10-03T11:32:33.406Z,21.31
2022-10-03T11:35:32.341Z,21.90
2022-10-03T11:38:24.866Z,21.53
2022-10-03T11:41:26.953Z,21.53
2022-10-03T11:44:21.357Z,22.27
2022-10-03T11:47:28.071Z,21.88
2022-10-03T11:50:15.088Z,21.97
2022-10-03T11:53:17.715Z,22.29
2022-10-03T11:55:52.768Z,22.13
2022-10-03T11:58:27.398Z,22.13
2022-10-03T12:01:02.439Z,22.37
2022-10-03T12:03:34.393Z,22.30
2022-10-03T12:06:26.642Z,22.42
2022-10-03T12:09:14.897Z,22.34
2022-10-03T12:14:37.552Z,22.31
2022-10-03T12:17:16.153Z,22.11
2022-10-03T12:20:04.129Z,22.00
2022-10-03T12:22:38.821Z,21.80
2022-10-03T12:25:30.529Z,21.80
2022-10-03T12:28:15.695Z,21.55
2022-10-03T12:31:01.080Z,21.55
2022-10-03T12:33:39.396Z,21.71
2022-10-03T12:36:17.280Z,21.71
2022-10-03T12:39:10.436Z,21.67
2022-10-03T12:41:45.481Z,21.67
2022-10-03T12:44:30.005Z,21.47
2022-10-03T12:47:11.810Z,21.44
2022-10-03T12:50:02.146Z,21.32
2022-10-03T12:52:36.733Z,21.32
2022-10-03T12:55:20.832Z,21.61
2022-10-03T12:57:58.726Z,21.61
2022-10-03T13:00:42.720Z,21.54
2022-10-03T13:03:26.311Z,21.62
2022-10-03T13:06:58.309Z,21.71
2022-10-03T13:09:33.820Z,20.99
2022-10-03T13:12:08.724Z,21.21
2022-10-03T13:14:46.757Z,20.86
2022-10-03T13:17:35.428Z,20.86
2022-10-03T13:20:07.313Z,21.65
2022-10-03T13:22:43.494Z,21.72
2022-10-03T13:25:22.207Z,21.72
2022-10-03T13:28:10.460Z,21.29
2022-10-03T13:30:45.382Z,21.76
2022-10-03T13:33:20.392Z,21.76
2022-10-03T13:36:02.954Z,21.83
2022-10-03T13:38:45.482Z,22.08
2022-10-03T13:41:35.705Z,22.08
2022-10-03T13:44:24.065Z,21.35
2022-10-03T13:47:04.871Z,21.61
2022-10-03T13:49:40.623Z,21.61
2022-10-03T13:52:23.108Z,21.50
2022-10-03T13:55:03.873Z,21.62
2022-10-03T13:57:58.669Z,21.30
2022-10-03T14:00:30.547Z,21.24
2022-10-03T14:03:05.189Z,21.24
2022-10-03T14:05:53.635Z,21.14
2022-10-03T14:08:48.199Z,21.44
2022-10-03T14:11:35.304Z,21.44
2022-10-03T14:14:13.299Z,20.68
2022-10-03T14:16:54.175Z,20.68
2022-10-03T14:19:44.202Z,20.62
2022-10-03T14:22:31.425Z,20.84
2022-10-03T14:25:04.007Z,20.86
2022-10-03T14:27:54.505Z,20.76
2022-10-03T14:30:26.867Z,20.85
2022-10-03T14:33:01.420Z,20.60
2022-10-03T14:35:46.514Z,20.63
2022-10-03T14:38:24.947Z,20.65
2022-10-03T14:41:02.737Z,20.51
2022-10-03T14:43:52.753Z,20.21
2022-10-03T14:46:24.910Z,20.80
2022-10-03T14:48:59.795Z,20.65
2022-10-03T14:51:31.680Z,20.50
2022-10-03T14:54:24.526Z,20.42
2022-10-03T14:56:56.211Z,20.62
2022-10-03T14:59:36.317Z,20.38
2022-10-03T15:02:08.303Z,19.63
2022-10-03T15:04:39.837Z,19.63
2022-10-03T15:07:09.094Z,20.05
2022-10-03T15:09:43.915Z,19.80
2022-10-03T15:12:19.078Z,19.84
2022-10-03T15:14:52.213Z,19.85
2022-10-03T15:17:24.316Z,19.45
2022-10-03T15:19:58.706Z,19.68
2022-10-03T15:22:33.698Z,19.57
2022-10-03T15:25:24.163Z,19.54
2022-10-03T15:27:56.317Z,19.56
2022-10-03T15:30:31.756Z,19.55
2022-10-03T15:33:16.732Z,19.41
2022-10-03T15:35:49.398Z,19.41
2022-10-03T15:38:23.123Z,19.60
2022-10-03T15:41:14.479Z,19.23
2022-10-03T15:43:58.457Z,19.21
2022-10-03T15:46:35.965Z,19.30
2022-10-03T15:49:10.593Z,19.27
2022-10-03T15:51:40.146Z,19.27
2022-10-03T15:54:11.680Z,18.96
2022-10-03T15:56:46.561Z,18.96
2022-10-03T15:59:30.215Z,18.84
2022-10-03T16:02:02.004Z,18.72
2022-10-03T16:04:38.573Z,18.92
2022-10-03T16:07:32.989Z,18.92
2022-10-03T16:10:22.894Z,18.69
2022-10-03T16:13:09.665Z,18.69
2022-10-03T16:15:47.680Z,18.30
2022-10-03T16:18:42.370Z,18.94
2022-10-03T16:21:14.184Z,18.94
2022-10-03T16:23:46.031Z,18.75
2022-10-03T16:26:29.993Z,18.61
2022-10-03T16:29:17.049Z,18.87
2022-10-03T16:31:49.008Z,18.05
2022-10-03T16:34:20.740Z,18.45
2022-10-03T16:36:51.827Z,18.25
2022-10-03T16:39:26.109Z,18.56
2022-10-03T16:41:56.623Z,18.56
2022-10-03T16:44:40.537Z,18.52
2022-10-03T16:47:12.072Z,18.52
2022-10-03T16:50:13.324Z,18.41
2022-10-03T16:52:44.152Z,17.88
2022-10-03T16:55:37.349Z,17.67
2022-10-03T16:58:12.000Z,17.54
2022-10-03T17:01:09.127Z,17.62
2022-10-03T17:03:26.433Z,17.56
2022-10-03T17:06:03.089Z,17.56
2022-10-03T17:08:41.837Z,17.38
2022-10-03T17:11:06.724Z,17.38
2022-10-03T17:13:44.595Z,16.97
2022-10-03T17:16:28.806Z,17.02
2022-10-03T17:19:35.803Z,17.02
2022-10-03T17:22:13.644Z,16.81
2022-10-03T17:24:51.339Z,16.81
2022-10-03T17:27:25.791Z,16.79
2022-10-03T17:30:00.957Z,16.81
2022-10-03T17:32:38.692Z,16.81
2022-10-03T17:35:22.165Z,16.89
2022-10-03T17:38:37.531Z,16.89
2022-10-03T17:41:03.699Z,17.19
2022-10-03T17:43:41.773Z,17.19
2022-10-03T17:46:19.715Z,17.30
2022-10-03T17:48:51.608Z,17.24
2022-10-03T17:51:32.330Z,17.49
2022-10-03T17:54:03.643Z,16.99
2022-10-03T17:56:35.465Z,17.27
2022-10-03T17:59:16.422Z,17.49
2022-10-03T18:01:48.714Z,17.65
2022-10-03T18:04:20.439Z,17.65
2022-10-03T18:06:52.389Z,17.65
2022-10-03T18:09:30.304Z,17.69
2022-10-03T18:12:08.452Z,17.92
2022-10-03T18:14:47.899Z,17.92
2022-10-03T18:17:53.449Z,17.81
2022-10-03T18:20:37.417Z,17.93
2022-10-03T18:23:09.392Z,17.81
2022-10-03T18:26:19.857Z,17.89
2022-10-03T18:28:43.137Z,17.89
2022-10-03T18:31:17.957Z,17.91
2022-10-03T18:33:51.345Z,17.91
2022-10-03T18:36:28.915Z,17.68
2022-10-03T18:39:00.806Z,17.76
2022-10-03T18:41:30.169Z,17.70
2022-10-03T18:44:01.703Z,17.61
2022-10-03T18:46:33.580Z,17.61
2022-10-03T18:49:36.187Z,17.20
2022-10-03T18:52:00.811Z,16.65
2022-10-03T18:54:38.920Z,16.03
2022-10-03T18:57:25.795Z,16.62
2022-10-03T19:00:09.688Z,16.62
2022-10-03T19:02:44.347Z,16.59
2022-10-03T19:05:22.143Z,16.49
2022-10-03T19:07:55.665Z,16.49
2022-10-03T19:10:45.257Z,16.34
2022-10-03T19:13:20.541Z,16.22
2022-10-03T19:16:17.183Z,16.26
2022-10-03T19:18:51.831Z,16.51
2022-10-03T19:21:22.849Z,16.67
2022-10-03T19:24:11.061Z,16.79
2022-10-03T19:26:43.060Z,16.79
2022-10-03T19:29:17.810Z,16.79
2022-10-03T19:31:55.146Z,16.78
2022-10-03T19:34:38.249Z,16.77
2022-10-03T19:37:12.863Z,16.76
2022-10-03T19:39:41.903Z,16.81
2022-10-03T19:42:30.133Z,16.49
2022-10-03T19:45:01.078Z,16.44
2022-10-03T19:47:40.347Z,16.31
2022-10-03T19:50:15.963Z,16.64
2022-10-03T19:52:45.144Z,16.64
2022-10-03T19:55:16.979Z,16.65
2022-10-03T19:57:51.704Z,16.94
2022-10-03T20:00:27.189Z,16.26
2022-10-03T20:02:59.071Z,16.14
2022-10-03T20:05:30.899Z,16.34
2022-10-03T20:08:19.356Z,16.53
2022-10-03T20:11:08.923Z,16.62
2022-10-03T20:13:47.456Z,16.77
2022-10-03T20:16:22.189Z,16.70
2022-10-03T20:18:54.160Z,16.70
2022-10-03T20:21:28.175Z,16.96
2022-10-03T20:23:58.844Z,16.95
2022-10-03T20:26:36.712Z,16.95
2022-10-03T20:29:23.365Z,16.83
2022-10-03T20:31:54.492Z,16.83
2022-10-03T20:34:26.371Z,16.75
2022-10-03T20:36:58.282Z,16.67
2022-10-03T20:39:33.248Z,16.67
2022-10-03T20:42:25.153Z,16.29
2022-10-03T20:45:03.592Z,16.90
2022-10-03T20:47:50.684Z,16.55
2022-10-03T20:50:31.442Z,16.70
2022-10-03T20:53:06.065Z,16.70
2022-10-03T20:55:38.565Z,16.26
2022-10-03T20:58:19.473Z,16.46
2022-10-03T21:00:51.477Z,16.46
2022-10-03T21:03:26.391Z,16.49
2022-10-03T21:05:58.666Z,16.81
2022-10-03T21:08:36.532Z,16.81
2022-10-03T21:11:26.245Z,17.02
2022-10-03T21:14:00.769Z,17.02
2022-10-03T21:16:35.884Z,16.74
2022-10-03T21:19:16.695Z,16.68
2022-10-03T21:21:57.511Z,16.68
2022-10-03T21:24:52.210Z,16.57
2022-10-03T21:27:23.144Z,16.26
2022-10-03T21:29:57.785Z,16.26
2022-10-03T21:32:36.594Z,16.42
2022-10-03T21:35:26.724Z,16.29
2022-10-03T21:38:22.820Z,16.19
2022-10-03T21:41:00.668Z,16.81
2022-10-03T21:43:35.380Z,16.81
2022-10-03T21:46:10.240Z,17.04
2022-10-03T21:48:58.488Z,17.04
2022-10-03T21:51:46.721Z,16.52
2022-10-03T21:54:27.681Z,16.22
2022-10-03T21:57:02.424Z,16.22
2022-10-03T21:59:52.284Z,16.30
2022-10-03T22:02:32.845Z,16.30
2022-10-03T22:05:10.843Z,16.49
2022-10-03T22:07:41.997Z,16.66
2022-10-03T22:10:25.923Z,16.66
2022-10-03T22:13:00.639Z,16.90
2022-10-03T22:15:44.656Z,16.98
2022-10-03T22:18:19.910Z,16.84
2022-10-03T22:21:08.717Z,16.94
2022-10-03T22:23:49.796Z,16.94
2022-10-03T22:26:24.625Z,16.64
2022-10-03T22:28:59.310Z,17.04
2022-10-03T22:31:55.419Z,16.56
2022-10-03T22:34:48.487Z,17.12
2022-10-03T22:37:17.573Z,17.02
2022-10-03T22:39:48.440Z,17.13
2022-10-03T22:42:19.994Z,17.13
2022-10-03T22:44:51.789Z,16.72
2022-10-03T22:47:26.584Z,16.50
2022-10-03T22:50:00.545Z,16.20
2022-10-03T22:52:32.057Z,16.26
2022-10-03T22:55:04.117Z,16.26
2022-10-03T22:57:35.833Z,16.64
2022-10-03T23:00:12.926Z,16.14
2022-10-03T23:02:50.916Z,16.00
2022-10-03T23:05:28.578Z,15.77
2022-10-03T23:08:03.295Z,15.77
2022-10-03T23:10:39.147Z,16.14
2022-10-03T23:13:27.661Z,15.87
2022-10-03T23:16:02.816Z,15.77
2022-10-03T23:18:46.965Z,15.85
2022-10-03T23:21:15.984Z,15.95
2022-10-03T23:23:53.887Z,15.77
2022-10-03T23:26:51.944Z,15.87
2022-10-03T23:29:22.244Z,16.03
2022-10-03T23:32:02.896Z,16.24
2022-10-03T23:34:40.458Z,16.24
2022-10-03T23:37:18.366Z,16.18
2022-10-03T23:39:59.213Z,15.75
2022-10-03T23:42:33.800Z,16.32
2022-10-03T23:45:12.082Z,16.32
2022-10-03T23:47:50.160Z,16.12
2022-10-03T23:50:21.981Z,16.25
2022-10-03T23:52:59.614Z,16.25
2022-10-03T23:55:31.467Z,16.13
2022-10-03T23:58:01.349Z,16.47
